Time;durP1;ratioP1;P1;durP2;ratioP2;P2;SDS_P1;SDS_P2;PMS_P1;PMS_P2;Temp;Humidity;BMP_temperature;BMP_pressure;BME280_temperature;BME280_humidity;BME280_pressure;Samples;Min_cycle;Max_cycle;Signal;HPM_P1;HPM_P2
2022/01/10 00:02:15;;;;;;;12.93;4.47;;;10.30;80.00;;;;;;6059625;23;20012;-92
2022/01/10 00:04:40;;;;;;;17.10;5.65;;;9.90;79.70;;;;;;6057839;23;20077;-93
2022/01/10 00:07:06;;;;;;;7.55;4.00;;;9.90;79.70;;;;;;6060399;23;20014;-92
2022/01/10 00:09:32;;;;;;;11.95;4.00;;;9.90;79.70;;;;;;6083772;23;20025;-92
2022/01/10 00:11:58;;;;;;;15.18;5.45;;;10.00;79.80;;;;;;6062760;23;20012;-92
2022/01/10 00:14:23;;;;;;;10.70;4.72;;;9.90;79.70;;;;;;6082830;23;20022;-92
2022/01/10 00:16:49;;;;;;;13.82;5.45;;;9.90;79.80;;;;;;6085179;23;20345;-92
2022/01/10 00:19:15;;;;;;;15.55;6.43;;;9.90;79.70;;;;;;6061007;23;20361;-93
2022/01/10 00:21:40;;;;;;;10.48;4.47;;;10.00;80.30;;;;;;6084104;23;20441;-93
2022/01/10 00:24:06;;;;;;;10.25;4.57;;;9.90;79.70;;;;;;6060735;23;20045;-92
2022/01/10 00:26:32;;;;;;;10.98;4.38;;;10.50;80.10;;;;;;6082313;23;20016;-92
2022/01/10 00:28:58;;;;;;;9.70;4.50;;;10.00;79.90;;;;;;6059224;23;20500;-92
2022/01/10 00:31:24;;;;;;;14.27;6.57;;;10.00;79.80;;;;;;6060698;23;20017;-91
2022/01/10 00:33:49;;;;;;;14.75;6.75;;;10.00;79.70;;;;;;6084038;23;20100;-92
2022/01/10 00:36:15;;;;;;;12.93;5.40;;;10.00;80.10;;;;;;6061293;23;20009;-92
2022/01/10 00:38:41;;;;;;;15.40;4.93;;;10.40;80.00;;;;;;6059832;23;20016;-92
2022/01/10 00:41:07;;;;;;;11.48;5.78;;;10.40;79.90;;;;;;6059352;23;20027;-91
2022/01/10 00:43:36;;;;;;;12.18;5.85;;;10.40;80.00;;;;;;6087137;23;20025;-92
2022/01/10 00:46:03;;;;;;;15.27;7.28;;;10.00;79.70;;;;;;6063272;23;20077;-92
2022/01/10 00:48:29;;;;;;;14.18;6.70;;;10.00;79.60;;;;;;6060464;23;20025;-93
2022/01/10 00:50:55;;;;;;;17.50;5.03;;;10.00;79.60;;;;;;6060042;23;20062;-92
2022/01/10 00:53:21;;;;;;;9.50;4.47;;;10.00;79.60;;;;;;6059409;23;20024;-93
2022/01/10 00:55:47;;;;;;;10.13;4.28;;;10.20;79.80;;;;;;6059175;23;20002;-93
2022/01/10 00:58:13;;;;;;;8.05;3.90;;;10.00;79.60;;;;;;6085881;23;20017;-93
2022/01/10 01:00:38;;;;;;;7.28;3.22;;;10.10;79.60;;;;;;6085585;23;20457;-93
2022/01/10 01:03:04;;;;;;;9.77;4.25;;;10.20;79.70;;;;;;6059667;23;20006;-92
2022/01/10 01:05:33;;;;;;;10.80;3.20;;;10.00;79.60;;;;;;6060325;23;20824;-92
2022/01/10 01:08:02;;;;;;;11.90;3.30;;;10.00;79.60;;;;;;6061758;23;20017;-92
2022/01/10 01:15:31;;;;;;;16.90;6.70;;;10.00;79.50;;;;;;6087417;23;20010;-92
2022/01/10 01:25:58;;;;;;;23.95;10.70;;;10.00;80.00;;;;;;6088825;23;20068;-92
2022/01/10 01:28:24;;;;;;;29.50;11.13;;;10.00;80.00;;;;;;6061418;23;20014;-93
2022/01/10 01:30:50;;;;;;;15.82;6.78;;;10.00;79.40;;;;;;6083695;23;20397;-92
2022/01/10 01:33:17;;;;;;;22.73;8.73;;;10.00;79.40;;;;;;6060754;23;20010;-92
2022/01/10 01:35:43;;;;;;;12.32;6.10;;;10.00;79.40;;;;;;6061290;23;20397;-92
2022/01/10 01:38:09;;;;;;;11.30;4.78;;;10.00;79.30;;;;;;6061704;23;20009;-93
2022/01/10 01:40:41;;;;;;;12.32;4.60;;;10.00;79.40;;;;;;6058002;23;20021;-92
2022/01/10 01:43:07;;;;;;;11.68;5.13;;;10.00;79.30;;;;;;6062911;23;20096;-92
2022/01/10 01:45:46;;;;;;;11.50;5.22;;;10.40;79.60;;;;;;6083892;23;20018;-92
2022/01/10 01:48:12;;;;;;;12.52;4.60;;;10.00;79.40;;;;;;6085074;23;20041;-92
2022/01/10 01:50:39;;;;;;;14.80;6.00;;;9.90;79.30;;;;;;6058673;23;20014;-92
2022/01/10 01:53:06;;;;;;;81.18;26.38;;;10.30;79.50;;;;;;6080425;23;20014;-92
2022/01/10 01:55:32;;;;;;;24.77;11.23;;;10.30;79.50;;;;;;6053392;23;20045;-91
2022/01/10 01:57:58;;;;;;;24.25;9.95;;;10.00;79.40;;;;;;6056283;23;20061;-92
2022/01/10 02:00:25;;;;;;;23.40;9.05;;;10.20;79.50;;;;;;6058827;23;20353;-92
2022/01/10 02:02:52;;;;;;;21.38;10.70;;;10.00;79.40;;;;;;6083463;23;20013;-92
2022/01/10 02:05:18;;;;;;;19.38;9.35;;;10.00;79.90;;;;;;6083605;23;20010;-93
2022/01/10 02:07:45;;;;;;;18.45;8.40;;;10.00;79.40;;;;;;6087439;23;20002;-92
2022/01/10 02:10:11;;;;;;;16.75;8.32;;;10.00;79.20;;;;;;6058011;23;20081;-93
2022/01/10 02:12:38;;;;;;;21.48;9.45;;;10.00;79.20;;;;;;6059510;23;20026;-92
2022/01/10 02:15:05;;;;;;;26.33;10.43;;;10.00;79.20;;;;;;6058592;23;20097;-92
2022/01/10 02:17:36;;;;;;;24.13;10.27;;;10.00;79.20;;;;;;6062117;23;20013;-92
2022/01/10 02:20:05;;;;;;;31.48;11.48;;;10.00;79.20;;;;;;6085748;23;20053;-92
2022/01/10 02:22:31;;;;;;;29.58;11.00;;;10.00;79.20;;;;;;6059097;23;20338;-91
2022/01/10 02:24:57;;;;;;;27.35;10.95;;;9.90;79.10;;;;;;6057873;23;20192;-92
2022/01/10 02:27:24;;;;;;;27.40;9.30;;;10.00;79.20;;;;;;6059030;23;20013;-92
2022/01/10 02:29:50;;;;;;;22.75;9.60;;;10.10;79.20;;;;;;6082409;23;20018;-92
2022/01/10 02:32:17;;;;;;;17.83;9.30;;;10.00;79.20;;;;;;6061010;23;20100;-92
2022/01/10 02:34:43;;;;;;;19.33;9.13;;;10.00;79.20;;;;;;6084436;23;20028;-92
2022/01/10 02:37:09;;;;;;;17.60;8.23;;;9.90;79.10;;;;;;6085445;23;20041;-92
2022/01/10 02:39:36;;;;;;;21.65;7.80;;;10.50;79.50;;;;;;6086961;23;20018;-91
2022/01/10 02:42:03;;;;;;;18.00;7.90;;;10.00;79.10;;;;;;6084938;23;20049;-92
2022/01/10 02:44:29;;;;;;;21.80;10.23;;;10.00;79.10;;;;;;6063869;23;20101;-93
2022/01/10 02:46:56;;;;;;;33.58;13.63;;;10.00;79.10;;;;;;6089122;23;20013;-92
2022/01/10 02:49:28;;;;;;;65.07;22.90;;;9.90;79.10;;;;;;6064389;23;20068;-92
2022/01/10 02:51:57;;;;;;;51.10;21.45;;;9.90;79.10;;;;;;6058946;23;20287;-92
2022/01/10 02:54:24;;;;;;;55.15;19.65;;;10.00;79.10;;;;;;6060592;23;20022;-93
2022/01/10 02:56:55;;;;;;;44.10;18.52;;;10.10;79.20;;;;;;6062907;23;20086;-92
2022/01/10 02:59:22;;;;;;;33.50;13.90;;;9.90;79.10;;;;;;6086463;23;20010;-92
2022/01/10 03:01:50;;;;;;;24.38;10.95;;;9.90;79.70;;;;;;6086527;23;20006;-92
2022/01/10 03:04:16;;;;;;;11.38;6.38;;;10.00;79.10;;;;;;6061278;23;20065;-92
2022/01/10 03:06:43;;;;;;;23.35;12.05;;;10.30;79.30;;;;;;6061027;23;21252;-92
2022/01/10 03:09:10;;;;;;;21.90;10.43;;;10.00;79.10;;;;;;6084828;23;20319;-92
2022/01/10 03:11:41;;;;;;;15.27;8.98;;;9.90;79.00;;;;;;6062820;23;20006;-92
2022/01/10 03:14:07;;;;;;;21.17;8.88;;;9.90;79.00;;;;;;6085515;23;20010;-92
2022/01/10 03:16:34;;;;;;;19.60;8.80;;;10.40;79.30;;;;;;6062141;23;20088;-92
2022/01/10 03:19:00;;;;;;;23.20;9.30;;;10.30;79.20;;;;;;6060248;23;20355;-92
2022/01/10 03:21:26;;;;;;;21.17;9.32;;;9.90;79.00;;;;;;6060938;23;20009;-92
2022/01/10 03:23:52;;;;;;;18.48;8.30;;;10.40;79.30;;;;;;6061165;23;20005;-92
2022/01/10 03:26:19;;;;;;;19.70;9.25;;;9.90;79.00;;;;;;6059510;23;20014;-92
2022/01/10 03:28:45;;;;;;;14.50;7.38;;;9.90;79.00;;;;;;6084940;23;20006;-92
2022/01/10 03:31:11;;;;;;;14.75;6.65;;;9.90;78.90;;;;;;6083943;23;20045;-93
2022/01/10 03:33:37;;;;;;;15.10;5.35;;;9.90;78.90;;;;;;6084975;23;20096;-92
2022/01/10 03:36:03;;;;;;;11.57;4.05;;;9.90;78.90;;;;;;6085003;23;20029;-92
2022/01/10 03:38:29;;;;;;;12.52;4.90;;;9.90;78.90;;;;;;6060503;23;20009;-92
2022/01/10 03:40:55;;;;;;;8.85;3.97;;;9.90;78.80;;;;;;6083281;23;20018;-92
2022/01/10 03:43:21;;;;;;;9.45;3.65;;;9.80;78.70;;;;;;6084896;23;20009;-92
2022/01/10 03:45:47;;;;;;;5.68;2.53;;;9.80;78.80;;;;;;6058224;23;20069;-92
2022/01/10 03:48:13;;;;;;;8.98;3.10;;;9.80;78.80;;;;;;6061273;23;20341;-93
2022/01/10 03:50:38;;;;;;;9.02;3.05;;;9.80;78.80;;;;;;6083559;23;20014;-91
2022/01/10 03:53:04;;;;;;;7.28;2.50;;;10.10;79.10;;;;;;6061246;23;20508;-92
2022/01/10 03:55:30;;;;;;;6.95;2.65;;;9.80;78.90;;;;;;6060230;23;20018;-92
2022/01/10 03:57:56;;;;;;;8.65;2.58;;;9.80;78.90;;;;;;6084528;23;20036;-93
2022/01/10 04:00:22;;;;;;;5.00;2.53;;;9.80;78.90;;;;;;6084340;23;20025;-92
2022/01/10 04:02:57;;;;;;;5.75;2.97;;;9.80;79.00;;;;;;6059532;23;20002;-92
2022/01/10 04:05:22;;;;;;;7.13;2.60;;;10.10;79.10;;;;;;6062984;23;20017;-92
2022/01/10 04:07:48;;;;;;;9.93;2.58;;;9.80;79.00;;;;;;6087037;23;20002;-93
2022/01/10 04:10:14;;;;;;;7.72;3.00;;;9.80;79.00;;;;;;6081403;23;20080;-93
2022/01/10 04:12:40;;;;;;;9.90;3.45;;;9.70;79.00;;;;;;6059046;23;20062;-92
2022/01/10 04:15:08;;;;;;;7.60;3.70;;;10.20;79.30;;;;;;6061632;23;20081;-92
2022/01/10 04:17:35;;;;;;;10.70;4.00;;;9.80;79.10;;;;;;6060037;23;20345;-92
2022/01/10 04:20:01;;;;;;;10.10;4.13;;;9.80;79.00;;;;;;6086681;23;20073;-92
2022/01/10 04:22:27;;;;;;;8.38;3.20;;;9.80;79.00;;;;;;6061044;23;20006;-94
2022/01/10 04:24:52;;;;;;;8.02;3.78;;;10.00;79.10;;;;;;6080904;23;20021;-91
2022/01/10 04:27:18;;;;;;;9.65;3.80;;;9.80;79.10;;;;;;6058024;23;20488;-92
2022/01/10 04:29:44;;;;;;;6.10;2.47;;;10.00;79.20;;;;;;6081274;23;20430;-93
2022/01/10 04:32:12;;;;;;;7.82;2.50;;;9.80;79.00;;;;;;6057510;23;20013;-92
2022/01/10 04:34:38;;;;;;;6.95;3.45;;;10.30;79.30;;;;;;6071398;23;20424;-91
2022/01/10 04:37:05;;;;;;;7.45;3.15;;;10.30;79.30;;;;;;6083670;23;20017;-92
2022/01/10 04:39:30;;;;;;;9.27;3.63;;;9.80;79.00;;;;;;6057599;23;20473;-92
2022/01/10 04:41:56;;;;;;;11.10;3.63;;;10.00;79.10;;;;;;6084300;23;20002;-92
2022/01/10 04:44:22;;;;;;;9.57;3.22;;;10.30;79.30;;;;;;6083907;23;20006;-92
2022/01/10 04:46:48;;;;;;;5.07;2.58;;;10.30;79.30;;;;;;6061061;23;20008;-92
2022/01/10 04:49:21;;;;;;;7.80;2.78;;;9.70;78.90;;;;;;6055374;23;20045;-92
2022/01/10 04:51:49;;;;;;;8.73;2.95;;;9.80;78.90;;;;;;6062082;23;20047;-92
2022/01/10 04:54:16;;;;;;;6.70;2.13;;;9.70;78.90;;;;;;6059938;23;20014;-92
2022/01/10 04:56:42;;;;;;;7.90;2.38;;;9.70;78.90;;;;;;6061378;23;20473;-93
2022/01/10 04:59:08;;;;;;;4.90;2.28;;;10.00;79.00;;;;;;6059425;23;20005;-91
2022/01/10 05:01:34;;;;;;;8.02;2.58;;;10.10;79.20;;;;;;6061263;23;20098;-92
2022/01/10 05:04:00;;;;;;;6.13;2.63;;;10.00;79.10;;;;;;6059900;23;20093;-92
2022/01/10 05:06:26;;;;;;;5.45;2.88;;;9.70;78.90;;;;;;6082664;23;20064;-92
2022/01/10 05:08:52;;;;;;;6.95;2.95;;;9.70;78.90;;;;;;6060393;23;20520;-91
2022/01/10 05:11:19;;;;;;;6.00;2.42;;;9.70;78.90;;;;;;6082557;23;20048;-93
2022/01/10 05:13:45;;;;;;;8.20;2.70;;;9.70;78.90;;;;;;6083217;23;20491;-92
2022/01/10 05:16:12;;;;;;;5.57;2.58;;;10.00;79.00;;;;;;6058100;23;20269;-92
2022/01/10 05:18:39;;;;;;;5.05;2.22;;;9.70;78.90;;;;;;6083922;23;20547;-92
2022/01/10 05:21:05;;;;;;;5.43;2.55;;;9.70;78.80;;;;;;6060420;23;20021;-92
2022/01/10 05:23:33;;;;;;;7.38;2.22;;;9.70;78.80;;;;;;6060705;23;20353;-93
2022/01/10 05:25:59;;;;;;;4.97;2.10;;;9.70;79.20;;;;;;6060529;23;20029;-92
2022/01/10 05:28:25;;;;;;;7.05;2.97;;;9.60;78.80;;;;;;6060288;23;20449;-93
2022/01/10 05:30:52;;;;;;;8.07;2.65;;;10.10;79.10;;;;;;6059950;23;20492;-92
2022/01/10 05:33:18;;;;;;;7.85;2.92;;;9.60;78.90;;;;;;6060166;23;20014;-92
2022/01/10 05:35:46;;;;;;;7.57;2.72;;;9.60;78.90;;;;;;6059497;23;20349;-92
2022/01/10 05:38:13;;;;;;;7.70;2.90;;;9.60;78.90;;;;;;6061604;23;20002;-93
2022/01/10 05:40:40;;;;;;;4.65;2.35;;;9.60;78.90;;;;;;6083613;23;20018;-92
2022/01/10 05:43:06;;;;;;;7.13;3.10;;;10.00;79.00;;;;;;6085766;23;19994;-92
2022/01/10 05:45:32;;;;;;;5.35;2.40;;;10.00;79.10;;;;;;6060908;23;20010;-93
2022/01/10 05:48:06;;;;;;;13.70;4.63;;;9.60;78.90;;;;;;6084918;23;20412;-92
2022/01/10 05:50:34;;;;;;;17.75;7.07;;;9.70;78.90;;;;;;6066473;23;20018;-93
2022/01/10 05:53:00;;;;;;;9.68;3.55;;;9.60;78.90;;;;;;6063377;23;20014;-93
2022/01/10 05:55:27;;;;;;;59.83;17.73;;;10.20;79.30;;;;;;6062044;23;20018;-93
2022/01/10 05:57:53;;;;;;;21.70;8.38;;;9.60;78.90;;;;;;6086765;23;20173;-91
2022/01/10 06:00:19;;;;;;;9.02;3.90;;;9.90;79.10;;;;;;6084025;23;20470;-92
2022/01/10 06:02:45;;;;;;;6.70;2.88;;;9.60;78.80;;;;;;6085663;23;20628;-92
2022/01/10 06:05:11;;;;;;;9.43;3.13;;;9.70;78.80;;;;;;6056853;23;20013;-93
2022/01/10 06:07:37;;;;;;;6.32;3.38;;;9.60;78.80;;;;;;6062430;23;20001;-93
2022/01/10 06:10:05;;;;;;;8.80;3.40;;;9.60;78.80;;;;;;6085395;23;20065;-92
2022/01/10 06:12:31;;;;;;;7.10;3.00;;;9.60;78.80;;;;;;6063066;23;20077;-93
2022/01/10 06:14:57;;;;;;;9.10;3.38;;;9.60;78.80;;;;;;6061917;23;20397;-93
2022/01/10 06:17:23;;;;;;;6.57;2.83;;;9.60;78.80;;;;;;6086717;23;20018;-92
2022/01/10 06:19:49;;;;;;;6.13;2.60;;;9.80;79.00;;;;;;6084803;23;20073;-92
2022/01/10 06:22:15;;;;;;;11.90;2.78;;;9.80;78.90;;;;;;6060977;23;20006;-92
2022/01/10 06:24:41;;;;;;;7.22;3.38;;;10.10;79.10;;;;;;6083824;23;20378;-92
2022/01/10 06:27:06;;;;;;;15.43;5.85;;;10.00;79.10;;;;;;6062355;23;20006;-92
2022/01/10 06:29:32;;;;;;;22.08;7.07;;;9.60;78.90;;;;;;6061535;23;20016;-93
2022/01/10 06:31:58;;;;;;;15.18;6.05;;;9.60;78.90;;;;;;6060125;23;19998;-92
2022/01/10 06:34:24;;;;;;;17.40;6.30;;;9.60;78.80;;;;;;6086927;23;20087;-92
2022/01/10 06:36:50;;;;;;;7.60;4.20;;;9.70;79.00;;;;;;6063210;23;20021;-93
2022/01/10 06:39:15;;;;;;;9.45;3.55;;;9.90;79.00;;;;;;6087336;23;20017;-93
2022/01/10 06:41:41;;;;;;;7.30;3.40;;;9.60;78.70;;;;;;6062086;23;20026;-92
2022/01/10 06:44:07;;;;;;;10.85;4.70;;;9.90;78.90;;;;;;6062615;23;20041;-91
2022/01/10 06:46:33;;;;;;;9.07;4.40;;;9.60;78.70;;;;;;6085875;23;20038;-92
2022/01/10 06:48:59;;;;;;;11.68;3.83;;;9.60;78.80;;;;;;6060204;23;20064;-93
2022/01/10 06:51:25;;;;;;;8.45;3.97;;;9.80;78.90;;;;;;6062399;23;20018;-92
2022/01/10 06:53:51;;;;;;;13.00;5.38;;;9.60;78.80;;;;;;6063835;23;20017;-92
2022/01/10 06:56:16;;;;;;;8.48;5.20;;;9.80;78.90;;;;;;6063053;23;20014;-92
2022/01/10 06:58:42;;;;;;;11.65;5.13;;;9.60;78.80;;;;;;6062678;23;20509;-93
2022/01/10 07:01:08;;;;;;;11.15;5.00;;;10.10;79.10;;;;;;6060796;23;20018;-94
2022/01/10 07:03:34;;;;;;;8.93;3.90;;;10.10;79.10;;;;;;6062838;23;20360;-92
2022/01/10 07:06:00;;;;;;;7.78;3.08;;;10.00;79.00;;;;;;6063488;23;20010;-94
2022/01/10 07:08:25;;;;;;;8.93;4.50;;;9.50;78.70;;;;;;6062987;23;20038;-91
2022/01/10 07:10:51;;;;;;;11.55;5.10;;;9.90;78.90;;;;;;6086926;23;20469;-93
2022/01/10 07:13:17;;;;;;;12.88;5.18;;;9.60;78.70;;;;;;6060223;23;20528;-93
2022/01/10 07:15:43;;;;;;;10.52;5.50;;;9.60;78.70;;;;;;6062378;23;20017;-91
2022/01/10 07:18:09;;;;;;;10.95;5.03;;;10.00;78.90;;;;;;6064726;23;20002;-93
2022/01/10 07:20:34;;;;;;;8.65;4.68;;;9.60;78.70;;;;;;6061088;23;20361;-92
2022/01/10 07:23:00;;;;;;;9.25;4.55;;;9.60;78.50;;;;;;6088056;23;20006;-93
2022/01/10 07:25:26;;;;;;;10.05;4.65;;;9.70;78.60;;;;;;6087124;23;20091;-93
2022/01/10 07:27:52;;;;;;;9.93;5.10;;;9.90;78.60;;;;;;6091971;23;20013;-93
2022/01/10 07:30:18;;;;;;;12.10;5.10;;;9.60;78.60;;;;;;6067755;23;20010;-93
2022/01/10 07:32:44;;;;;;;9.48;6.05;;;9.50;78.40;;;;;;6065759;23;20092;-93
2022/01/10 07:35:10;;;;;;;12.40;6.43;;;9.60;78.50;;;;;;6088459;23;20096;-92
2022/01/10 07:37:36;;;;;;;8.88;4.13;;;9.50;78.40;;;;;;6062641;23;20413;-93
2022/01/10 07:40:03;;;;;;;11.93;4.72;;;9.60;78.50;;;;;;6085423;23;20046;-92
2022/01/10 07:42:29;;;;;;;13.00;5.78;;;9.50;78.40;;;;;;6086787;23;20036;-94
2022/01/10 07:44:55;;;;;;;8.35;4.63;;;9.50;79.20;;;;;;6060857;23;20465;-93
2022/01/10 07:47:21;;;;;;;10.48;5.20;;;9.50;78.60;;;;;;6062750;23;20005;-92
2022/01/10 07:49:47;;;;;;;10.73;5.28;;;9.50;78.50;;;;;;6061707;23;20029;-93
2022/01/10 07:52:13;;;;;;;10.45;6.20;;;9.70;78.70;;;;;;6088010;23;19998;-92
2022/01/10 07:54:39;;;;;;;8.05;4.70;;;9.50;78.50;;;;;;6059896;23;20041;-93
2022/01/10 07:57:05;;;;;;;8.70;4.32;;;9.50;78.50;;;;;;6061054;23;20113;-92
2022/01/10 07:59:31;;;;;;;9.27;5.28;;;9.50;78.50;;;;;;6085698;23;20013;-93
2022/01/10 08:01:57;;;;;;;11.00;3.95;;;9.50;78.60;;;;;;6062823;23;20010;-93
2022/01/10 08:04:23;;;;;;;6.57;3.72;;;9.50;78.60;;;;;;6081572;23;20063;-93
2022/01/10 08:06:48;;;;;;;9.85;4.32;;;9.70;78.80;;;;;;6059879;23;20124;-93
2022/01/10 08:09:14;;;;;;;10.45;3.65;;;9.50;78.80;;;;;;6060159;23;20020;-93
2022/01/10 08:11:40;;;;;;;10.07;3.42;;;9.50;78.80;;;;;;6061538;23;20512;-93
2022/01/10 08:14:06;;;;;;;12.18;3.53;;;9.80;79.00;;;;;;6059078;23;20045;-93
2022/01/10 08:16:32;;;;;;;7.32;3.25;;;9.50;78.80;;;;;;6061055;23;20025;-93
2022/01/10 08:18:58;;;;;;;10.85;3.05;;;9.50;78.80;;;;;;6086252;23;20433;-92
2022/01/10 08:21:24;;;;;;;9.75;3.10;;;9.50;78.90;;;;;;6062002;23;20037;-94
2022/01/10 08:23:49;;;;;;;10.60;4.70;;;9.50;78.90;;;;;;6056660;23;20002;-94
2022/01/10 08:26:16;;;;;;;19.77;7.32;;;9.50;79.00;;;;;;6059376;23;20469;-94
2022/01/10 08:28:42;;;;;;;14.48;6.78;;;9.50;79.00;;;;;;6085052;23;20005;-94
2022/01/10 08:31:11;;;;;;;13.35;5.28;;;9.60;79.10;;;;;;6058471;23;20354;-93
2022/01/10 08:33:37;;;;;;;12.25;4.63;;;9.50;79.00;;;;;;6058487;23;20352;-94
2022/01/10 08:36:03;;;;;;;10.55;3.72;;;9.50;79.00;;;;;;6084730;23;20104;-94
2022/01/10 08:38:29;;;;;;;8.88;3.60;;;9.50;79.60;;;;;;6085395;23;20065;-94
2022/01/10 08:40:55;;;;;;;9.88;3.40;;;9.50;79.00;;;;;;6083743;23;20014;-93
2022/01/10 08:43:21;;;;;;;13.30;4.13;;;9.50;79.00;;;;;;6061754;23;20096;-94
2022/01/10 08:45:46;;;;;;;7.25;3.67;;;9.50;79.00;;;;;;6060481;23;20069;-92
2022/01/10 08:48:12;;;;;;;13.65;3.55;;;9.50;79.10;;;;;;6062600;23;20468;-94
2022/01/10 08:50:38;;;;;;;10.63;4.45;;;9.50;79.10;;;;;;6085060;23;20390;-94
2022/01/10 08:53:09;;;;;;;11.20;4.88;;;9.70;79.20;;;;;;6061706;23;20025;-93
2022/01/10 08:55:35;;;;;;;13.45;6.10;;;9.50;79.20;;;;;;6060890;23;20092;-94
2022/01/10 08:58:01;;;;;;;12.70;5.75;;;9.50;79.20;;;;;;6087353;23;20101;-94
2022/01/10 09:00:27;;;;;;;14.93;5.65;;;9.90;79.50;;;;;;6059450;23;20337;-93
2022/01/10 09:02:53;;;;;;;12.40;6.45;;;9.50;79.30;;;;;;6061804;23;20013;-93
2022/01/10 09:05:19;;;;;;;15.48;7.70;;;9.40;79.20;;;;;;6087866;23;20445;-93
2022/01/10 09:07:46;;;;;;;11.80;5.35;;;9.40;79.30;;;;;;6059739;23;20006;-94
2022/01/10 09:10:12;;;;;;;10.27;4.70;;;9.40;79.20;;;;;;6085576;23;20754;-94
2022/01/10 09:12:39;;;;;;;10.77;4.70;;;9.40;79.30;;;;;;6059611;23;20061;-94
2022/01/10 09:15:09;;;;;;;16.02;5.55;;;9.60;79.40;;;;;;6058182;23;20382;-93
2022/01/10 09:17:35;;;;;;;13.90;4.68;;;9.40;79.20;;;;;;6059046;23;20006;-93
2022/01/10 09:20:01;;;;;;;9.93;5.55;;;9.40;79.30;;;;;;6062386;23;20009;-94
2022/01/10 09:22:26;;;;;;;13.85;5.15;;;9.60;79.40;;;;;;6083941;23;20022;-94
2022/01/10 09:24:52;;;;;;;12.10;4.20;;;9.90;79.50;;;;;;6083836;23;20013;-93
2022/01/10 09:27:18;;;;;;;11.50;4.35;;;9.30;79.20;;;;;;6061381;23;20018;-94
2022/01/10 09:29:46;;;;;;;12.38;4.72;;;9.50;79.30;;;;;;6084849;23;20069;-93
2022/01/10 09:32:12;;;;;;;10.43;4.05;;;9.20;79.20;;;;;;6061711;23;20018;-95
2022/01/10 09:34:38;;;;;;;7.38;2.70;;;9.60;79.50;;;;;;6084843;23;20196;-94
2022/01/10 09:37:04;;;;;;;8.68;3.22;;;9.20;79.20;;;;;;6083169;23;20145;-94
2022/01/10 09:39:30;;;;;;;6.38;2.90;;;9.20;79.20;;;;;;6060181;23;20013;-94
2022/01/10 09:41:57;;;;;;;7.95;3.40;;;9.10;79.20;;;;;;6084120;23;20014;-94
2022/01/10 09:44:24;;;;;;;5.55;2.50;;;9.60;79.60;;;;;;6088151;23;20006;-93
2022/01/10 09:46:50;;;;;;;8.63;3.47;;;9.60;79.70;;;;;;6060866;23;20042;-95
2022/01/10 09:49:17;;;;;;;6.10;2.95;;;9.10;80.10;;;;;;6085819;23;20017;-93
2022/01/10 09:51:43;;;;;;;11.40;3.63;;;9.20;79.50;;;;;;6086250;23;20529;-94
2022/01/10 09:54:10;;;;;;;8.38;4.30;;;9.10;79.50;;;;;;6083600;23;20043;-92
2022/01/10 09:56:36;;;;;;;8.43;3.72;;;9.10;79.50;;;;;;6060693;23;20017;-93
2022/01/10 09:59:02;;;;;;;10.00;4.22;;;9.60;79.80;;;;;;6061236;23;20013;-93
2022/01/10 10:01:30;;;;;;;7.57;3.20;;;9.20;79.70;;;;;;6084964;23;20018;-92
2022/01/10 10:03:59;;;;;;;7.95;3.20;;;9.20;79.60;;;;;;6061583;23;20157;-92
2022/01/10 10:06:27;;;;;;;6.95;3.33;;;9.10;79.50;;;;;;6063073;23;20488;-92
2022/01/10 10:08:56;;;;;;;7.18;3.28;;;9.60;79.90;;;;;;6085246;23;20053;-91
2022/01/10 10:11:21;;;;;;;11.55;4.22;;;9.20;79.70;;;;;;6059137;23;20065;-91
2022/01/10 10:13:55;;;;;;;10.55;4.93;;;9.10;79.80;;;;;;6061339;23;20014;-92
2022/01/10 10:16:22;;;;;;;8.15;3.50;;;9.20;79.80;;;;;;6088185;23;20018;-92
2022/01/10 10:18:48;;;;;;;7.50;3.30;;;9.60;80.10;;;;;;6086591;23;20002;-92
2022/01/10 10:21:20;;;;;;;9.43;4.15;;;9.20;79.90;;;;;;6059221;23;20025;-93
2022/01/10 10:23:48;;;;;;;9.35;4.15;;;9.30;80.00;;;;;;6061534;23;20009;-92
2022/01/10 10:26:20;;;;;;;8.57;3.65;;;9.10;80.60;;;;;;6061529;23;20022;-92
2022/01/10 10:28:48;;;;;;;9.75;4.57;;;9.10;80.00;;;;;;6084316;23;20085;-92
2022/01/10 10:31:32;;;;;;;7.07;3.58;;;9.10;80.10;;;;;;6083842;23;20089;-92
2022/01/10 10:34:04;;;;;;;7.05;3.20;;;9.10;80.20;;;;;;6089306;23;20025;-93
2022/01/10 10:36:33;;;;;;;7.35;3.78;;;9.60;80.50;;;;;;6064285;23;20092;-92
2022/01/10 10:39:02;;;;;;;5.78;3.33;;;9.30;80.30;;;;;;6066221;23;20057;-92
2022/01/10 10:41:28;;;;;;;9.95;3.78;;;9.10;80.20;;;;;;6063252;23;20018;-92
2022/01/10 10:43:54;;;;;;;7.20;2.95;;;9.20;80.50;;;;;;6084049;23;20072;-92
2022/01/10 10:46:25;;;;;;;9.55;3.47;;;9.00;80.50;;;;;;6063594;23;20025;-91
2022/01/10 10:48:53;;;;;;;7.07;3.55;;;9.40;80.70;;;;;;6087043;23;20020;-91
2022/01/10 10:51:19;;;;;;;6.65;2.95;;;9.00;80.50;;;;;;6063709;23;20357;-92
2022/01/10 10:53:45;;;;;;;7.05;3.33;;;9.00;80.60;;;;;;6061904;23;20009;-92
2022/01/10 10:56:11;;;;;;;8.60;3.75;;;9.10;80.70;;;;;;6085116;23;20041;-92
2022/01/10 10:58:41;;;;;;;9.77;3.58;;;9.00;80.80;;;;;;6084444;23;20409;-92
2022/01/10 11:01:07;;;;;;;8.48;3.80;;;9.00;80.80;;;;;;6063551;23;20010;-92
2022/01/10 11:03:33;;;;;;;8.00;3.53;;;9.00;80.90;;;;;;6063228;23;20088;-91
2022/01/10 11:06:02;;;;;;;9.88;2.67;;;8.70;80.80;;;;;;6063016;23;20036;-92
2022/01/10 11:08:31;;;;;;;9.10;3.35;;;9.00;80.80;;;;;;6086054;23;20017;-93
2022/01/10 11:11:01;;;;;;;7.85;3.65;;;9.00;80.80;;;;;;6061388;23;20138;-93
2022/01/10 11:13:29;;;;;;;9.43;4.00;;;9.00;81.00;;;;;;6085118;23;20010;-93
2022/01/10 11:15:56;;;;;;;5.47;2.95;;;9.00;81.00;;;;;;6084800;23;20451;-92
2022/01/10 11:18:22;;;;;;;5.75;3.20;;;9.00;81.10;;;;;;6086861;23;20036;-92
2022/01/10 11:20:57;;;;;;;6.35;2.85;;;9.00;81.10;;;;;;6063248;23;20441;-91
2022/01/10 11:23:23;;;;;;;;;;;9.10;81.20;;;;;;6089954;23;20246;-92
2022/01/10 11:25:49;;;;;;;6.40;2.72;;;9.60;81.50;;;;;;6116071;23;20115;-92
2022/01/10 11:28:23;;;;;;;7.00;3.28;;;9.00;81.00;;;;;;6095048;23;20002;-90
2022/01/10 11:30:56;;;;;;;9.15;3.58;;;9.00;81.10;;;;;;6097109;23;20037;-92
2022/01/10 11:33:26;;;;;;;7.00;3.03;;;9.00;81.00;;;;;;6088150;23;20037;-92
2022/01/10 11:36:08;;;;;;;7.90;3.50;;;9.00;81.10;;;;;;6060262;23;20010;-93
2022/01/10 11:38:38;;;;;;;6.97;2.70;;;9.10;81.20;;;;;;6064323;23;20017;-92
2022/01/10 11:41:14;;;;;;;7.22;3.08;;;9.10;81.20;;;;;;6084535;23;20029;-94
